sensor_id;sensor_type;location;lat;lon;timestamp;P1;durP1;ratioP1;P2;durP2;ratioP2
10226;SDS011;15634;48.766;2.272;2022-09-12T00:01:52;12.60;;;8.93;;
10226;SDS011;15634;48.766;2.272;2022-09-12T00:04:19;11.75;;;8.18;;
10226;SDS011;15634;48.766;2.272;2022-09-12T00:06:45;13.27;;;8.65;;
10226;SDS011;15634;48.766;2.272;2022-09-12T00:09:12;14.50;;;8.95;;
10226;SDS011;15634;48.766;2.272;2022-09-12T00:11:41;13.18;;;8.95;;
10226;SDS011;15634;48.766;2.272;2022-09-12T00:14:09;12.50;;;8.93;;
10226;SDS011;15634;48.766;2.272;2022-09-12T00:16:37;12.98;;;8.52;;
10226;SDS011;15634;48.766;2.272;2022-09-12T00:19:04;10.98;;;7.95;;
10226;SDS011;15634;48.766;2.272;2022-09-12T00:21:32;11.80;;;7.85;;
10226;SDS011;15634;48.766;2.272;2022-09-12T00:24:00;11.60;;;8.45;;
10226;SDS011;15634;48.766;2.272;2022-09-12T00:26:26;13.40;;;8.93;;
10226;SDS011;15634;48.766;2.272;2022-09-12T00:28:55;15.55;;;8.07;;
10226;SDS011;15634;48.766;2.272;2022-09-12T00:31:23;13.88;;;8.60;;
10226;SDS011;15634;48.766;2.272;2022-09-12T00:33:50;14.88;;;8.73;;
10226;SDS011;15634;48.766;2.272;2022-09-12T00:36:18;14.80;;;9.00;;
10226;SDS011;15634;48.766;2.272;2022-09-12T00:38:47;12.93;;;9.15;;
10226;SDS011;15634;48.766;2.272;2022-09-12T00:41:15;13.68;;;8.63;;
10226;SDS011;15634;48.766;2.272;2022-09-12T00:43:44;13.07;;;8.50;;
10226;SDS011;15634;48.766;2.272;2022-09-12T00:46:15;12.57;;;8.88;;
10226;SDS011;15634;48.766;2.272;2022-09-12T00:48:50;13.40;;;9.32;;
10226;SDS011;15634;48.766;2.272;2022-09-12T00:51:19;13.43;;;9.02;;
10226;SDS011;15634;48.766;2.272;2022-09-12T00:53:46;13.35;;;9.02;;
10226;SDS011;15634;48.766;2.272;2022-09-12T00:56:14;12.00;;;8.80;;
10226;SDS011;15634;48.766;2.272;2022-09-12T00:58:43;13.55;;;8.68;;
10226;SDS011;15634;48.766;2.272;2022-09-12T01:01:14;15.07;;;8.65;;
10226;SDS011;15634;48.766;2.272;2022-09-12T01:03:41;14.90;;;9.55;;
10226;SDS011;15634;48.766;2.272;2022-09-12T01:06:09;15.50;;;9.15;;
10226;SDS011;15634;48.766;2.272;2022-09-12T01:08:39;13.38;;;8.55;;
10226;SDS011;15634;48.766;2.272;2022-09-12T01:11:09;13.63;;;8.75;;
10226;SDS011;15634;48.766;2.272;2022-09-12T01:13:36;15.88;;;9.30;;
10226;SDS011;15634;48.766;2.272;2022-09-12T01:16:03;15.68;;;8.75;;
10226;SDS011;15634;48.766;2.272;2022-09-12T01:18:37;15.15;;;8.70;;
10226;SDS011;15634;48.766;2.272;2022-09-12T01:21:17;13.70;;;9.80;;
10226;SDS011;15634;48.766;2.272;2022-09-12T01:27:04;13.07;;;9.07;;
10226;SDS011;15634;48.766;2.272;2022-09-12T01:33:04;13.43;;;8.93;;
10226;SDS011;15634;48.766;2.272;2022-09-12T01:35:38;15.40;;;9.15;;
10226;SDS011;15634;48.766;2.272;2022-09-12T01:38:12;17.67;;;9.98;;
10226;SDS011;15634;48.766;2.272;2022-09-12T01:40:45;13.30;;;9.57;;
10226;SDS011;15634;48.766;2.272;2022-09-12T01:43:19;13.73;;;9.07;;
10226;SDS011;15634;48.766;2.272;2022-09-12T01:45:51;17.65;;;9.18;;
10226;SDS011;15634;48.766;2.272;2022-09-12T01:48:25;14.55;;;9.88;;
10226;SDS011;15634;48.766;2.272;2022-09-12T01:50:56;17.97;;;10.27;;
10226;SDS011;15634;48.766;2.272;2022-09-12T01:53:27;13.98;;;9.30;;
10226;SDS011;15634;48.766;2.272;2022-09-12T01:55:58;16.35;;;9.95;;
10226;SDS011;15634;48.766;2.272;2022-09-12T01:58:28;14.25;;;9.60;;
10226;SDS011;15634;48.766;2.272;2022-09-12T02:00:59;16.13;;;9.95;;
10226;SDS011;15634;48.766;2.272;2022-09-12T02:03:31;14.68;;;9.52;;
10226;SDS011;15634;48.766;2.272;2022-09-12T02:06:00;12.13;;;8.75;;
10226;SDS011;15634;48.766;2.272;2022-09-12T02:08:30;15.55;;;9.90;;
10226;SDS011;15634;48.766;2.272;2022-09-12T02:11:00;15.70;;;9.05;;
10226;SDS011;15634;48.766;2.272;2022-09-12T02:13:31;12.60;;;8.30;;
10226;SDS011;15634;48.766;2.272;2022-09-12T02:16:03;17.48;;;9.88;;
10226;SDS011;15634;48.766;2.272;2022-09-12T02:18:35;15.02;;;9.60;;
10226;SDS011;15634;48.766;2.272;2022-09-12T02:21:04;14.30;;;10.00;;
10226;SDS011;15634;48.766;2.272;2022-09-12T02:23:31;15.07;;;8.98;;
10226;SDS011;15634;48.766;2.272;2022-09-12T02:25:59;13.90;;;9.65;;
10226;SDS011;15634;48.766;2.272;2022-09-12T02:28:30;12.85;;;9.85;;
10226;SDS011;15634;48.766;2.272;2022-09-12T02:31:00;13.05;;;8.88;;
10226;SDS011;15634;48.766;2.272;2022-09-12T02:33:34;12.45;;;9.48;;
10226;SDS011;15634;48.766;2.272;2022-09-12T02:36:08;16.38;;;8.98;;
10226;SDS011;15634;48.766;2.272;2022-09-12T02:38:40;14.25;;;9.13;;
10226;SDS011;15634;48.766;2.272;2022-09-12T02:41:09;15.77;;;9.13;;
10226;SDS011;15634;48.766;2.272;2022-09-12T02:43:36;13.48;;;9.13;;
10226;SDS011;15634;48.766;2.272;2022-09-12T02:46:03;15.80;;;9.40;;
10226;SDS011;15634;48.766;2.272;2022-09-12T02:48:33;16.38;;;8.85;;
10226;SDS011;15634;48.766;2.272;2022-09-12T02:51:03;15.52;;;9.90;;
10226;SDS011;15634;48.766;2.272;2022-09-12T02:53:29;12.85;;;8.82;;
10226;SDS011;15634;48.766;2.272;2022-09-12T02:55:56;14.32;;;9.90;;
10226;SDS011;15634;48.766;2.272;2022-09-12T02:58:23;15.63;;;9.18;;
10226;SDS011;15634;48.766;2.272;2022-09-12T03:00:55;14.23;;;9.25;;
10226;SDS011;15634;48.766;2.272;2022-09-12T03:03:30;14.30;;;9.07;;
10226;SDS011;15634;48.766;2.272;2022-09-12T03:06:10;14.60;;;8.97;;
10226;SDS011;15634;48.766;2.272;2022-09-12T03:08:50;13.52;;;9.38;;
10226;SDS011;15634;48.766;2.272;2022-09-12T03:11:26;16.35;;;9.25;;
10226;SDS011;15634;48.766;2.272;2022-09-12T03:14:02;14.73;;;9.35;;
10226;SDS011;15634;48.766;2.272;2022-09-12T03:16:34;17.13;;;9.75;;
10226;SDS011;15634;48.766;2.272;2022-09-12T03:19:08;13.68;;;9.35;;
10226;SDS011;15634;48.766;2.272;2022-09-12T03:21:42;15.45;;;9.00;;
10226;SDS011;15634;48.766;2.272;2022-09-12T03:24:16;15.80;;;9.02;;
10226;SDS011;15634;48.766;2.272;2022-09-12T03:26:45;14.98;;;9.20;;
10226;SDS011;15634;48.766;2.272;2022-09-12T03:29:15;12.57;;;9.18;;
10226;SDS011;15634;48.766;2.272;2022-09-12T03:31:49;14.18;;;8.90;;
10226;SDS011;15634;48.766;2.272;2022-09-12T03:34:17;14.95;;;8.82;;
10226;SDS011;15634;48.766;2.272;2022-09-12T03:36:46;14.00;;;9.50;;
10226;SDS011;15634;48.766;2.272;2022-09-12T03:39:12;13.35;;;8.90;;
10226;SDS011;15634;48.766;2.272;2022-09-12T03:41:39;15.60;;;9.63;;
10226;SDS011;15634;48.766;2.272;2022-09-12T03:44:06;14.05;;;9.30;;
10226;SDS011;15634;48.766;2.272;2022-09-12T03:46:32;12.18;;;8.95;;
10226;SDS011;15634;48.766;2.272;2022-09-12T03:48:59;12.40;;;9.38;;
10226;SDS011;15634;48.766;2.272;2022-09-12T03:51:26;13.50;;;9.65;;
10226;SDS011;15634;48.766;2.272;2022-09-12T03:53:54;16.45;;;10.07;;
10226;SDS011;15634;48.766;2.272;2022-09-12T03:56:21;16.98;;;10.10;;
10226;SDS011;15634;48.766;2.272;2022-09-12T03:58:47;15.95;;;10.20;;
10226;SDS011;15634;48.766;2.272;2022-09-12T04:01:14;14.75;;;9.30;;
10226;SDS011;15634;48.766;2.272;2022-09-12T04:03:42;18.40;;;10.20;;
10226;SDS011;15634;48.766;2.272;2022-09-12T04:06:10;16.88;;;9.93;;
10226;SDS011;15634;48.766;2.272;2022-09-12T04:08:39;15.27;;;9.82;;
10226;SDS011;15634;48.766;2.272;2022-09-12T04:11:09;17.00;;;10.23;;
10226;SDS011;15634;48.766;2.272;2022-09-12T04:13:38;17.73;;;10.27;;
10226;SDS011;15634;48.766;2.272;2022-09-12T04:16:05;14.77;;;9.55;;
10226;SDS011;15634;48.766;2.272;2022-09-12T04:18:32;16.02;;;10.38;;
10226;SDS011;15634;48.766;2.272;2022-09-12T04:21:02;17.80;;;9.88;;
10226;SDS011;15634;48.766;2.272;2022-09-12T04:23:29;13.88;;;9.52;;
10226;SDS011;15634;48.766;2.272;2022-09-12T04:25:56;16.25;;;9.65;;
10226;SDS011;15634;48.766;2.272;2022-09-12T04:28:25;13.70;;;9.05;;
10226;SDS011;15634;48.766;2.272;2022-09-12T04:30:53;17.42;;;9.80;;
10226;SDS011;15634;48.766;2.272;2022-09-12T04:33:20;17.52;;;10.02;;
10226;SDS011;15634;48.766;2.272;2022-09-12T04:35:47;13.45;;;9.35;;
10226;SDS011;15634;48.766;2.272;2022-09-12T04:38:14;16.02;;;10.27;;
10226;SDS011;15634;48.766;2.272;2022-09-12T04:40:41;15.73;;;9.82;;
10226;SDS011;15634;48.766;2.272;2022-09-12T04:43:07;15.95;;;9.85;;
10226;SDS011;15634;48.766;2.272;2022-09-12T04:45:35;14.02;;;9.80;;
10226;SDS011;15634;48.766;2.272;2022-09-12T04:48:02;14.40;;;9.32;;
10226;SDS011;15634;48.766;2.272;2022-09-12T04:50:29;16.70;;;9.65;;
10226;SDS011;15634;48.766;2.272;2022-09-12T04:52:56;16.08;;;9.77;;
10226;SDS011;15634;48.766;2.272;2022-09-12T04:55:22;12.48;;;9.05;;
10226;SDS011;15634;48.766;2.272;2022-09-12T04:57:50;14.82;;;9.18;;
10226;SDS011;15634;48.766;2.272;2022-09-12T05:00:17;15.32;;;9.00;;
10226;SDS011;15634;48.766;2.272;2022-09-12T05:02:45;16.20;;;9.70;;
10226;SDS011;15634;48.766;2.272;2022-09-12T05:05:12;15.90;;;9.85;;
10226;SDS011;15634;48.766;2.272;2022-09-12T05:07:39;13.40;;;9.30;;
10226;SDS011;15634;48.766;2.272;2022-09-12T05:10:06;14.30;;;9.75;;
10226;SDS011;15634;48.766;2.272;2022-09-12T05:12:33;13.00;;;8.85;;
10226;SDS011;15634;48.766;2.272;2022-09-12T05:15:01;12.73;;;8.65;;
10226;SDS011;15634;48.766;2.272;2022-09-12T05:17:28;14.88;;;9.13;;
10226;SDS011;15634;48.766;2.272;2022-09-12T05:19:56;13.57;;;9.10;;
10226;SDS011;15634;48.766;2.272;2022-09-12T05:22:23;16.55;;;9.80;;
10226;SDS011;15634;48.766;2.272;2022-09-12T05:24:50;15.80;;;9.13;;
10226;SDS011;15634;48.766;2.272;2022-09-12T05:27:17;15.77;;;9.48;;
10226;SDS011;15634;48.766;2.272;2022-09-12T05:29:44;18.05;;;10.18;;
10226;SDS011;15634;48.766;2.272;2022-09-12T05:32:10;18.05;;;10.27;;
10226;SDS011;15634;48.766;2.272;2022-09-12T05:34:37;15.18;;;9.90;;
10226;SDS011;15634;48.766;2.272;2022-09-12T05:37:05;16.80;;;10.35;;
10226;SDS011;15634;48.766;2.272;2022-09-12T05:39:32;14.02;;;9.52;;
10226;SDS011;15634;48.766;2.272;2022-09-12T05:41:59;14.60;;;9.35;;
10226;SDS011;15634;48.766;2.272;2022-09-12T05:44:26;16.77;;;9.32;;
10226;SDS011;15634;48.766;2.272;2022-09-12T05:46:53;14.52;;;9.25;;
10226;SDS011;15634;48.766;2.272;2022-09-12T05:49:20;15.45;;;9.40;;
10226;SDS011;15634;48.766;2.272;2022-09-12T05:51:47;20.60;;;9.18;;
10226;SDS011;15634;48.766;2.272;2022-09-12T05:54:17;15.55;;;8.93;;
10226;SDS011;15634;48.766;2.272;2022-09-12T05:56:45;16.23;;;9.27;;
10226;SDS011;15634;48.766;2.272;2022-09-12T05:59:13;17.67;;;9.77;;
10226;SDS011;15634;48.766;2.272;2022-09-12T06:01:41;15.35;;;9.30;;
10226;SDS011;15634;48.766;2.272;2022-09-12T06:04:08;14.77;;;8.60;;
10226;SDS011;15634;48.766;2.272;2022-09-12T06:06:37;14.20;;;9.25;;
10226;SDS011;15634;48.766;2.272;2022-09-12T06:09:06;15.68;;;8.68;;
10226;SDS011;15634;48.766;2.272;2022-09-12T06:11:34;13.45;;;8.93;;
10226;SDS011;15634;48.766;2.272;2022-09-12T06:14:04;16.58;;;9.50;;
10226;SDS011;15634;48.766;2.272;2022-09-12T06:16:32;14.07;;;8.75;;
10226;SDS011;15634;48.766;2.272;2022-09-12T06:19:00;11.30;;;8.25;;
10226;SDS011;15634;48.766;2.272;2022-09-12T06:21:28;14.55;;;8.13;;
10226;SDS011;15634;48.766;2.272;2022-09-12T06:23:56;13.98;;;8.57;;
10226;SDS011;15634;48.766;2.272;2022-09-12T06:26:23;13.18;;;8.57;;
10226;SDS011;15634;48.766;2.272;2022-09-12T06:28:52;14.07;;;8.60;;
10226;SDS011;15634;48.766;2.272;2022-09-12T06:31:20;16.80;;;9.35;;
10226;SDS011;15634;48.766;2.272;2022-09-12T06:33:48;15.15;;;10.05;;
10226;SDS011;15634;48.766;2.272;2022-09-12T06:36:16;16.73;;;9.88;;
10226;SDS011;15634;48.766;2.272;2022-09-12T06:38:45;18.80;;;10.05;;
10226;SDS011;15634;48.766;2.272;2022-09-12T06:41:12;15.43;;;10.07;;
10226;SDS011;15634;48.766;2.272;2022-09-12T06:43:40;17.25;;;10.18;;
10226;SDS011;15634;48.766;2.272;2022-09-12T06:46:08;15.20;;;10.05;;
10226;SDS011;15634;48.766;2.272;2022-09-12T06:48:37;15.43;;;9.68;;
10226;SDS011;15634;48.766;2.272;2022-09-12T06:51:04;14.40;;;9.90;;
10226;SDS011;15634;48.766;2.272;2022-09-12T06:53:32;14.63;;;9.95;;
10226;SDS011;15634;48.766;2.272;2022-09-12T06:56:01;14.95;;;10.13;;
10226;SDS011;15634;48.766;2.272;2022-09-12T06:58:29;14.82;;;10.38;;
10226;SDS011;15634;48.766;2.272;2022-09-12T07:00:59;17.73;;;10.20;;
10226;SDS011;15634;48.766;2.272;2022-09-12T07:03:28;15.98;;;9.40;;
10226;SDS011;15634;48.766;2.272;2022-09-12T07:05:55;14.35;;;9.48;;
10226;SDS011;15634;48.766;2.272;2022-09-12T07:08:22;19.10;;;9.40;;
10226;SDS011;15634;48.766;2.272;2022-09-12T07:10:48;12.82;;;9.05;;
10226;SDS011;15634;48.766;2.272;2022-09-12T07:13:15;13.75;;;8.65;;
10226;SDS011;15634;48.766;2.272;2022-09-12T07:15:42;12.00;;;7.80;;
10226;SDS011;15634;48.766;2.272;2022-09-12T07:18:09;11.98;;;7.85;;
10226;SDS011;15634;48.766;2.272;2022-09-12T07:20:37;13.32;;;8.30;;
10226;SDS011;15634;48.766;2.272;2022-09-12T07:23:04;14.63;;;7.43;;
10226;SDS011;15634;48.766;2.272;2022-09-12T07:25:30;10.15;;;6.80;;
10226;SDS011;15634;48.766;2.272;2022-09-12T07:27:57;12.07;;;6.90;;
10226;SDS011;15634;48.766;2.272;2022-09-12T07:30:23;9.65;;;6.50;;
10226;SDS011;15634;48.766;2.272;2022-09-12T07:32:50;10.32;;;6.10;;
10226;SDS011;15634;48.766;2.272;2022-09-12T07:35:18;9.43;;;6.10;;
10226;SDS011;15634;48.766;2.272;2022-09-12T07:37:46;10.90;;;6.22;;
10226;SDS011;15634;48.766;2.272;2022-09-12T07:40:13;9.63;;;5.88;;
10226;SDS011;15634;48.766;2.272;2022-09-12T07:42:39;9.43;;;5.18;;
10226;SDS011;15634;48.766;2.272;2022-09-12T07:45:06;8.30;;;5.47;;
10226;SDS011;15634;48.766;2.272;2022-09-12T07:47:34;8.18;;;5.30;;
10226;SDS011;15634;48.766;2.272;2022-09-12T07:50:00;9.00;;;5.75;;
10226;SDS011;15634;48.766;2.272;2022-09-12T07:52:27;7.85;;;5.20;;
10226;SDS011;15634;48.766;2.272;2022-09-12T07:54:55;9.25;;;5.70;;
10226;SDS011;15634;48.766;2.272;2022-09-12T07:57:22;8.35;;;5.30;;
10226;SDS011;15634;48.766;2.272;2022-09-12T07:59:49;7.38;;;5.25;;
10226;SDS011;15634;48.766;2.272;2022-09-12T08:02:16;10.75;;;5.18;;
10226;SDS011;15634;48.766;2.272;2022-09-12T08:04:43;6.95;;;5.00;;
10226;SDS011;15634;48.766;2.272;2022-09-12T08:07:11;11.05;;;5.13;;
10226;SDS011;15634;48.766;2.272;2022-09-12T08:09:38;8.30;;;4.78;;
10226;SDS011;15634;48.766;2.272;2022-09-12T08:12:07;7.90;;;5.07;;
10226;SDS011;15634;48.766;2.272;2022-09-12T08:14:34;8.10;;;4.65;;
10226;SDS011;15634;48.766;2.272;2022-09-12T08:17:00;10.02;;;5.13;;
10226;SDS011;15634;48.766;2.272;2022-09-12T08:19:27;8.68;;;5.00;;
10226;SDS011;15634;48.766;2.272;2022-09-12T08:21:56;7.15;;;4.57;;
10226;SDS011;15634;48.766;2.272;2022-09-12T08:24:23;8.57;;;5.22;;
10226;SDS011;15634;48.766;2.272;2022-09-12T08:26:50;11.27;;;5.63;;
10226;SDS011;15634;48.766;2.272;2022-09-12T08:29:18;10.55;;;5.32;;
10226;SDS011;15634;48.766;2.272;2022-09-12T08:31:45;8.65;;;5.10;;
10226;SDS011;15634;48.766;2.272;2022-09-12T08:34:11;10.13;;;5.43;;
10226;SDS011;15634;48.766;2.272;2022-09-12T08:36:41;9.63;;;5.15;;
10226;SDS011;15634;48.766;2.272;2022-09-12T08:39:07;11.00;;;4.93;;
10226;SDS011;15634;48.766;2.272;2022-09-12T08:41:37;9.45;;;5.65;;
10226;SDS011;15634;48.766;2.272;2022-09-12T08:44:13;8.20;;;5.20;;
10226;SDS011;15634;48.766;2.272;2022-09-12T08:46:50;9.07;;;5.57;;
10226;SDS011;15634;48.766;2.272;2022-09-12T08:49:24;8.68;;;5.20;;
10226;SDS011;15634;48.766;2.272;2022-09-12T08:51:53;9.77;;;5.82;;
10226;SDS011;15634;48.766;2.272;2022-09-12T08:54:22;11.63;;;5.32;;
10226;SDS011;15634;48.766;2.272;2022-09-12T08:56:50;9.82;;;4.70;;
10226;SDS011;15634;48.766;2.272;2022-09-12T08:59:23;10.90;;;5.18;;
10226;SDS011;15634;48.766;2.272;2022-09-12T09:01:50;7.32;;;5.35;;
10226;SDS011;15634;48.766;2.272;2022-09-12T09:04:31;8.25;;;4.93;;
10226;SDS011;15634;48.766;2.272;2022-09-12T09:10:07;12.93;;;5.68;;
10226;SDS011;15634;48.766;2.272;2022-09-12T09:12:43;12.82;;;5.72;;
10226;SDS011;15634;48.766;2.272;2022-09-12T09:17:51;9.50;;;4.40;;
10226;SDS011;15634;48.766;2.272;2022-09-12T09:20:21;8.38;;;4.25;;
10226;SDS011;15634;48.766;2.272;2022-09-12T09:22:52;8.60;;;4.28;;
10226;SDS011;15634;48.766;2.272;2022-09-12T09:25:21;10.23;;;4.40;;
10226;SDS011;15634;48.766;2.272;2022-09-12T09:27:52;9.35;;;4.10;;
10226;SDS011;15634;48.766;2.272;2022-09-12T09:30:24;8.18;;;3.65;;
10226;SDS011;15634;48.766;2.272;2022-09-12T09:32:51;9.20;;;4.22;;
10226;SDS011;15634;48.766;2.272;2022-09-12T09:35:21;9.63;;;4.47;;
10226;SDS011;15634;48.766;2.272;2022-09-12T09:37:58;9.05;;;3.80;;
10226;SDS011;15634;48.766;2.272;2022-09-12T09:40:29;7.95;;;4.18;;
10226;SDS011;15634;48.766;2.272;2022-09-12T09:43:03;11.20;;;4.25;;
10226;SDS011;15634;48.766;2.272;2022-09-12T09:45:34;9.63;;;3.92;;
10226;SDS011;15634;48.766;2.272;2022-09-12T09:48:03;7.72;;;3.60;;
10226;SDS011;15634;48.766;2.272;2022-09-12T09:50:38;7.15;;;3.75;;
10226;SDS011;15634;48.766;2.272;2022-09-12T09:53:05;6.32;;;3.78;;
10226;SDS011;15634;48.766;2.272;2022-09-12T09:55:39;6.38;;;3.60;;
10226;SDS011;15634;48.766;2.272;2022-09-12T09:58:07;8.85;;;3.22;;
10226;SDS011;15634;48.766;2.272;2022-09-12T10:00:36;7.53;;;3.47;;
10226;SDS011;15634;48.766;2.272;2022-09-12T10:03:06;8.45;;;3.80;;
10226;SDS011;15634;48.766;2.272;2022-09-12T10:05:50;10.38;;;2.97;;
10226;SDS011;15634;48.766;2.272;2022-09-12T10:08:22;8.48;;;3.33;;
10226;SDS011;15634;48.766;2.272;2022-09-12T10:10:58;6.38;;;3.03;;
10226;SDS011;15634;48.766;2.272;2022-09-12T10:13:33;5.72;;;2.92;;
10226;SDS011;15634;48.766;2.272;2022-09-12T10:16:08;8.00;;;2.88;;
10226;SDS011;15634;48.766;2.272;2022-09-12T10:18:44;7.90;;;3.05;;
10226;SDS011;15634;48.766;2.272;2022-09-12T10:21:13;7.65;;;2.92;;
10226;SDS011;15634;48.766;2.272;2022-09-12T10:23:43;6.60;;;2.78;;
10226;SDS011;15634;48.766;2.272;2022-09-12T10:26:11;6.05;;;2.75;;
10226;SDS011;15634;48.766;2.272;2022-09-12T10:28:40;5.03;;;2.60;;
10226;SDS011;15634;48.766;2.272;2022-09-12T10:31:12;7.00;;;2.63;;
10226;SDS011;15634;48.766;2.272;2022-09-12T10:33:43;5.70;;;2.70;;
10226;SDS011;15634;48.766;2.272;2022-09-12T10:36:16;3.08;;;2.40;;
10226;SDS011;15634;48.766;2.272;2022-09-12T10:38:47;4.78;;;2.40;;
10226;SDS011;15634;48.766;2.272;2022-09-12T10:41:14;5.68;;;2.40;;
10226;SDS011;15634;48.766;2.272;2022-09-12T10:43:41;3.80;;;2.38;;
10226;SDS011;15634;48.766;2.272;2022-09-12T10:46:22;3.70;;;2.20;;
10226;SDS011;15634;48.766;2.272;2022-09-12T10:49:13;4.13;;;2.40;;
10226;SDS011;15634;48.766;2.272;2022-09-12T10:51:46;3.78;;;1.90;;
10226;SDS011;15634;48.766;2.272;2022-09-12T10:54:15;4.05;;;2.30;;
10226;SDS011;15634;48.766;2.272;2022-09-12T10:56:44;3.92;;;2.63;;
10226;SDS011;15634;48.766;2.272;2022-09-12T10:59:20;3.15;;;2.33;;
10226;SDS011;15634;48.766;2.272;2022-09-12T11:01:54;3.65;;;2.28;;
10226;SDS011;15634;48.766;2.272;2022-09-12T11:04:27;4.30;;;2.75;;
10226;SDS011;15634;48.766;2.272;2022-09-12T11:07:02;5.85;;;2.30;;
10226;SDS011;15634;48.766;2.272;2022-09-12T11:09:39;3.40;;;2.20;;
10226;SDS011;15634;48.766;2.272;2022-09-12T11:12:12;3.92;;;2.20;;
10226;SDS011;15634;48.766;2.272;2022-09-12T11:14:47;2.83;;;2.13;;
10226;SDS011;15634;48.766;2.272;2022-09-12T11:17:26;3.55;;;1.92;;
10226;SDS011;15634;48.766;2.272;2022-09-12T11:20:06;1.90;;;1.70;;
10226;SDS011;15634;48.766;2.272;2022-09-12T11:22:52;3.00;;;1.77;;
10226;SDS011;15634;48.766;2.272;2022-09-12T11:25:42;2.13;;;1.80;;
10226;SDS011;15634;48.766;2.272;2022-09-12T11:28:14;2.72;;;1.98;;
10226;SDS011;15634;48.766;2.272;2022-09-12T11:30:50;2.95;;;1.90;;
10226;SDS011;15634;48.766;2.272;2022-09-12T11:33:31;4.47;;;1.88;;
10226;SDS011;15634;48.766;2.272;2022-09-12T11:36:03;2.90;;;1.67;;
10226;SDS011;15634;48.766;2.272;2022-09-12T11:38:40;2.15;;;1.83;;
10226;SDS011;15634;48.766;2.272;2022-09-12T11:41:14;2.13;;;1.67;;
10226;SDS011;15634;48.766;2.272;2022-09-12T11:43:44;5.28;;;1.80;;
10226;SDS011;15634;48.766;2.272;2022-09-12T11:46:15;2.47;;;1.70;;
10226;SDS011;15634;48.766;2.272;2022-09-12T11:48:47;3.15;;;1.92;;
10226;SDS011;15634;48.766;2.272;2022-09-12T11:51:19;4.88;;;2.05;;
10226;SDS011;15634;48.766;2.272;2022-09-12T11:56:24;2.28;;;1.75;;
10226;SDS011;15634;48.766;2.272;2022-09-12T11:58:51;3.72;;;1.98;;
10226;SDS011;15634;48.766;2.272;2022-09-12T12:01:24;2.90;;;2.10;;
10226;SDS011;15634;48.766;2.272;2022-09-12T12:03:54;4.50;;;2.08;;
10226;SDS011;15634;48.766;2.272;2022-09-12T12:06:23;3.42;;;1.90;;
10226;SDS011;15634;48.766;2.272;2022-09-12T12:08:52;3.58;;;1.83;;
10226;SDS011;15634;48.766;2.272;2022-09-12T12:11:26;6.50;;;2.05;;
10226;SDS011;15634;48.766;2.272;2022-09-12T12:13:56;3.28;;;2.03;;
10226;SDS011;15634;48.766;2.272;2022-09-12T12:16:25;3.13;;;1.85;;
10226;SDS011;15634;48.766;2.272;2022-09-12T12:18:55;4.47;;;2.20;;
10226;SDS011;15634;48.766;2.272;2022-09-12T12:24:12;3.85;;;2.15;;
10226;SDS011;15634;48.766;2.272;2022-09-12T12:26:43;4.78;;;1.90;;
10226;SDS011;15634;48.766;2.272;2022-09-12T12:29:35;3.45;;;2.08;;
10226;SDS011;15634;48.766;2.272;2022-09-12T12:38:24;3.22;;;2.00;;
10226;SDS011;15634;48.766;2.272;2022-09-12T12:40:52;2.20;;;1.85;;
10226;SDS011;15634;48.766;2.272;2022-09-12T12:43:29;6.10;;;2.20;;
10226;SDS011;15634;48.766;2.272;2022-09-12T12:51:32;4.50;;;1.90;;
10226;SDS011;15634;48.766;2.272;2022-09-12T12:54:05;2.38;;;1.80;;
10226;SDS011;15634;48.766;2.272;2022-09-12T12:56:59;4.25;;;1.85;;
10226;SDS011;15634;48.766;2.272;2022-09-12T12:59:26;2.45;;;1.70;;
10226;SDS011;15634;48.766;2.272;2022-09-12T13:01:54;3.50;;;1.95;;
10226;SDS011;15634;48.766;2.272;2022-09-12T13:04:22;1.88;;;1.73;;
10226;SDS011;15634;48.766;2.272;2022-09-12T13:06:54;2.72;;;1.70;;
10226;SDS011;15634;48.766;2.272;2022-09-12T13:09:25;3.97;;;2.00;;
10226;SDS011;15634;48.766;2.272;2022-09-12T13:14:33;3.08;;;1.85;;
10226;SDS011;15634;48.766;2.272;2022-09-12T13:17:13;5.43;;;2.00;;
10226;SDS011;15634;48.766;2.272;2022-09-12T13:19:43;2.35;;;1.63;;
10226;SDS011;15634;48.766;2.272;2022-09-12T13:22:10;1.70;;;1.50;;
10226;SDS011;15634;48.766;2.272;2022-09-12T13:24:42;2.60;;;1.80;;
10226;SDS011;15634;48.766;2.272;2022-09-12T13:27:16;3.40;;;1.80;;
10226;SDS011;15634;48.766;2.272;2022-09-12T13:29:43;4.70;;;1.77;;
10226;SDS011;15634;48.766;2.272;2022-09-12T13:32:10;2.40;;;1.92;;
10226;SDS011;15634;48.766;2.272;2022-09-12T13:34:40;3.47;;;1.77;;
10226;SDS011;15634;48.766;2.272;2022-09-12T13:37:21;3.00;;;1.55;;
10226;SDS011;15634;48.766;2.272;2022-09-12T13:39:56;2.95;;;1.90;;
10226;SDS011;15634;48.766;2.272;2022-09-12T13:42:39;2.47;;;1.77;;
10226;SDS011;15634;48.766;2.272;2022-09-12T13:45:10;3.35;;;2.00;;
10226;SDS011;15634;48.766;2.272;2022-09-12T13:47:39;5.03;;;2.05;;
10226;SDS011;15634;48.766;2.272;2022-09-12T13:50:07;2.75;;;1.63;;
10226;SDS011;15634;48.766;2.272;2022-09-12T13:52:39;1.83;;;1.65;;
10226;SDS011;15634;48.766;2.272;2022-09-12T13:55:17;4.60;;;1.60;;
10226;SDS011;15634;48.766;2.272;2022-09-12T13:57:54;2.45;;;1.70;;
10226;SDS011;15634;48.766;2.272;2022-09-12T14:00:22;3.03;;;1.70;;
10226;SDS011;15634;48.766;2.272;2022-09-12T14:02:49;2.53;;;1.70;;
10226;SDS011;15634;48.766;2.272;2022-09-12T14:05:36;3.28;;;1.55;;
10226;SDS011;15634;48.766;2.272;2022-09-12T14:08:04;2.38;;;1.40;;
10226;SDS011;15634;48.766;2.272;2022-09-12T14:10:34;3.25;;;1.60;;
10226;SDS011;15634;48.766;2.272;2022-09-12T14:13:03;3.47;;;1.63;;
10226;SDS011;15634;48.766;2.272;2022-09-12T14:15:36;1.33;;;1.23;;
10226;SDS011;15634;48.766;2.272;2022-09-12T14:18:04;3.47;;;1.70;;
10226;SDS011;15634;48.766;2.272;2022-09-12T14:20:34;2.25;;;1.52;;
10226;SDS011;15634;48.766;2.272;2022-09-12T14:23:03;4.18;;;1.60;;
10226;SDS011;15634;48.766;2.272;2022-09-12T14:25:42;1.50;;;1.27;;
10226;SDS011;15634;48.766;2.272;2022-09-12T14:28:12;2.15;;;1.52;;
10226;SDS011;15634;48.766;2.272;2022-09-12T14:30:55;2.17;;;1.48;;
10226;SDS011;15634;48.766;2.272;2022-09-12T14:33:23;2.97;;;1.55;;
10226;SDS011;15634;48.766;2.272;2022-09-12T14:35:50;2.42;;;1.60;;
10226;SDS011;15634;48.766;2.272;2022-09-12T14:38:20;2.75;;;1.30;;
10226;SDS011;15634;48.766;2.272;2022-09-12T14:40:51;2.33;;;1.70;;
10226;SDS011;15634;48.766;2.272;2022-09-12T14:43:25;2.03;;;1.48;;
10226;SDS011;15634;48.766;2.272;2022-09-12T14:45:54;2.53;;;1.48;;
10226;SDS011;15634;48.766;2.272;2022-09-12T14:48:23;1.65;;;1.30;;
10226;SDS011;15634;48.766;2.272;2022-09-12T14:50:50;2.25;;;1.20;;
10226;SDS011;15634;48.766;2.272;2022-09-12T14:53:22;1.70;;;1.38;;
10226;SDS011;15634;48.766;2.272;2022-09-12T14:55:52;2.13;;;1.65;;
10226;SDS011;15634;48.766;2.272;2022-09-12T14:58:24;2.15;;;1.60;;
10226;SDS011;15634;48.766;2.272;2022-09-12T15:00:56;1.42;;;1.33;;
10226;SDS011;15634;48.766;2.272;2022-09-12T15:03:25;1.38;;;1.10;;
10226;SDS011;15634;48.766;2.272;2022-09-12T15:05:53;1.75;;;1.38;;
10226;SDS011;15634;48.766;2.272;2022-09-12T15:08:20;2.90;;;1.50;;
10226;SDS011;15634;48.766;2.272;2022-09-12T15:10:46;1.50;;;1.30;;
10226;SDS011;15634;48.766;2.272;2022-09-12T15:13:18;2.47;;;1.65;;
10226;SDS011;15634;48.766;2.272;2022-09-12T15:15:48;1.30;;;1.20;;
10226;SDS011;15634;48.766;2.272;2022-09-12T15:18:16;1.85;;;1.20;;
10226;SDS011;15634;48.766;2.272;2022-09-12T15:20:44;1.58;;;1.30;;
10226;SDS011;15634;48.766;2.272;2022-09-12T15:23:17;2.60;;;1.25;;
10226;SDS011;15634;48.766;2.272;2022-09-12T15:25:45;1.90;;;1.23;;
10226;SDS011;15634;48.766;2.272;2022-09-12T15:28:16;1.58;;;1.30;;
10226;SDS011;15634;48.766;2.272;2022-09-12T15:33:13;1.23;;;1.13;;